Boeing 737-800 авиакомпании SpiceJet перебежал полосу посреди Махараштры

Опубликовано 08.12.2021 в рубрике Новости. Автор:

Boeing 737-86JWL авиакомпании SpiceJet (SG) перебежал полосу при посадке в Ширди, штат Махараштра.

Инцидент произошёл 29 апреля 2019 года в 16:23 по местному времени. На борту было 164 пассажира и члена экипажа; о пострадавших сообщений нет, повреждения авиалайнера тоже (публично) не зафиксированы.

Самолёт под регистрационным номером VT-SGJ выполнял рейс SG946 из Дели (DEL) в Ширди (SAG). Приземляясь на ВПП 09, смог остановиться лишь на грунте в 50 метрах за её пределами. После чего была проведена эвакуация через аварийные выходы.

Аэропорт Ширди располагает единственной взлётно-посадочной полосой 09/27 с асфальтовым покрытием длиной 2 500 метров.

VASD 291200Z 29005KT 5000 FU NSC 40/11 Q1008 NOSIG=
VASD 291130Z 31007KT 5000 FU NSC 41/12 Q1007 NOSIG=
VASD 291100Z 29006KT 6000 NSC 42/09 Q1007 NOSIG=
VASD 291030Z 30007KT 6000 NSC 41/08 Q1008 NOSIG=
VASD 291000Z 33004KT 6000 NSC 42/08 Q1008 NOSIG=
VASD 290930Z 31004KT 6000 NSC 42/08 Q1008 NOSIG=

  Индия

Читайте также:  Boeing поставил первый MAX для Кореи
Top.Mail.Ru